North Powder, Oregon
Current Conditions -  °F | °C
As of 5:53 AM on Thursday 23 Oct 2014 (Local Time) from KBKE Reporting Station
Light Rain Light Rain  
Wind Chill: 55°   Ceiling: 6500
Heat Index: 55°   Visibility: 10mi
Dew Point: 40°   Wind: 18mph
Humidity: 57%   Direction: 130°SE
Pressure: 29.9"   Gusts: NA
Location:  45.03°N, 117.92°W
Report Text: KBKE 231253Z AUTO 13016KT 10SM -RA OVC065 13/04 A2990 RMK AO2 SLP117 P0000 T01280044
Loading
Personal Weather Stations






























Interactive Weather Map
Tropical Storm Tracking
New forecast layout! Learn more

10-Day Weather Forecast

Advertisements
Track Severe Weather on mobile